sensor_id;sensor_type;location;lat;lon;timestamp;temperature;humidity
27978;DHT22;15314;49.248;6.968;2023-06-22T00:00:24;21.90;99.90
27978;DHT22;15314;49.248;6.968;2023-06-22T00:01:25;21.90;99.90
27978;DHT22;15314;49.248;6.968;2023-06-22T00:02:26;21.90;99.90
27978;DHT22;15314;49.248;6.968;2023-06-22T00:03:26;21.80;99.90
27978;DHT22;15314;49.248;6.968;2023-06-22T00:04:27;21.80;99.90
27978;DHT22;15314;49.248;6.968;2023-06-22T00:05:28;21.80;99.90
27978;DHT22;15314;49.248;6.968;2023-06-22T00:06:28;21.80;99.90
27978;DHT22;15314;49.248;6.968;2023-06-22T00:07:29;21.80;99.90
27978;DHT22;15314;49.248;6.968;2023-06-22T00:08:29;21.80;99.90
27978;DHT22;15314;49.248;6.968;2023-06-22T00:09:31;21.70;99.90
27978;DHT22;15314;49.248;6.968;2023-06-22T00:10:31;21.70;99.90
27978;DHT22;15314;49.248;6.968;2023-06-22T00:11:33;21.70;99.90
27978;DHT22;15314;49.248;6.968;2023-06-22T00:12:34;21.70;99.90
27978;DHT22;15314;49.248;6.968;2023-06-22T00:13:34;21.80;99.90
27978;DHT22;15314;49.248;6.968;2023-06-22T00:14:35;21.80;99.90
27978;DHT22;15314;49.248;6.968;2023-06-22T00:15:37;21.80;99.90
27978;DHT22;15314;49.248;6.968;2023-06-22T00:16:38;21.80;99.90
27978;DHT22;15314;49.248;6.968;2023-06-22T00:17:39;21.70;99.90
27978;DHT22;15314;49.248;6.968;2023-06-22T00:18:40;21.50;99.90
27978;DHT22;15314;49.248;6.968;2023-06-22T00:19:47;21.50;99.90
27978;DHT22;15314;49.248;6.968;2023-06-22T00:20:48;21.60;99.90
27978;DHT22;15314;49.248;6.968;2023-06-22T00:21:52;21.60;99.90
27978;DHT22;15314;49.248;6.968;2023-06-22T00:22:57;21.60;99.90
27978;DHT22;15314;49.248;6.968;2023-06-22T00:23:58;21.60;99.90
27978;DHT22;15314;49.248;6.968;2023-06-22T00:24:59;21.60;99.90
27978;DHT22;15314;49.248;6.968;2023-06-22T00:25:59;21.70;99.90
27978;DHT22;15314;49.248;6.968;2023-06-22T00:27:00;21.70;99.90
27978;DHT22;15314;49.248;6.968;2023-06-22T00:28:02;21.60;99.90
27978;DHT22;15314;49.248;6.968;2023-06-22T00:29:02;21.60;99.90
27978;DHT22;15314;49.248;6.968;2023-06-22T00:30:03;21.60;99.90
27978;DHT22;15314;49.248;6.968;2023-06-22T00:31:04;21.50;99.90
27978;DHT22;15314;49.248;6.968;2023-06-22T00:32:05;21.50;99.90
27978;DHT22;15314;49.248;6.968;2023-06-22T00:33:06;21.50;99.90
27978;DHT22;15314;49.248;6.968;2023-06-22T00:34:08;21.50;99.90
27978;DHT22;15314;49.248;6.968;2023-06-22T00:35:09;21.60;99.90
27978;DHT22;15314;49.248;6.968;2023-06-22T00:36:13;21.40;99.90
27978;DHT22;15314;49.248;6.968;2023-06-22T00:37:17;21.50;99.90
27978;DHT22;15314;49.248;6.968;2023-06-22T00:38:18;21.50;99.90
27978;DHT22;15314;49.248;6.968;2023-06-22T00:39:18;21.50;99.90
27978;DHT22;15314;49.248;6.968;2023-06-22T00:40:19;21.40;99.90
27978;DHT22;15314;49.248;6.968;2023-06-22T00:41:22;21.30;99.90
27978;DHT22;15314;49.248;6.968;2023-06-22T00:42:22;21.20;99.90
27978;DHT22;15314;49.248;6.968;2023-06-22T00:43:23;21.20;99.90
27978;DHT22;15314;49.248;6.968;2023-06-22T00:44:24;21.30;99.90
27978;DHT22;15314;49.248;6.968;2023-06-22T00:45:25;21.30;99.90
27978;DHT22;15314;49.248;6.968;2023-06-22T00:46:26;21.30;99.90
27978;DHT22;15314;49.248;6.968;2023-06-22T00:47:27;21.30;99.90
27978;DHT22;15314;49.248;6.968;2023-06-22T00:48:28;21.30;99.90
27978;DHT22;15314;49.248;6.968;2023-06-22T00:49:29;21.30;99.90
27978;DHT22;15314;49.248;6.968;2023-06-22T00:50:32;21.40;99.90
27978;DHT22;15314;49.248;6.968;2023-06-22T00:51:37;21.40;99.90
27978;DHT22;15314;49.248;6.968;2023-06-22T00:52:38;21.40;99.90
27978;DHT22;15314;49.248;6.968;2023-06-22T00:53:44;21.40;99.90
27978;DHT22;15314;49.248;6.968;2023-06-22T00:54:45;21.40;99.90
27978;DHT22;15314;49.248;6.968;2023-06-22T00:55:46;21.50;99.90
27978;DHT22;15314;49.248;6.968;2023-06-22T00:56:48;21.50;99.90
27978;DHT22;15314;49.248;6.968;2023-06-22T00:57:49;21.60;99.90
27978;DHT22;15314;49.248;6.968;2023-06-22T00:58:50;21.50;99.90
27978;DHT22;15314;49.248;6.968;2023-06-22T00:59:53;21.50;99.90
27978;DHT22;15314;49.248;6.968;2023-06-22T01:00:54;21.40;99.90
27978;DHT22;15314;49.248;6.968;2023-06-22T01:01:55;21.50;99.90
27978;DHT22;15314;49.248;6.968;2023-06-22T01:02:56;21.50;99.90
27978;DHT22;15314;49.248;6.968;2023-06-22T01:03:56;21.60;99.90
27978;DHT22;15314;49.248;6.968;2023-06-22T01:04:58;21.60;99.90
27978;DHT22;15314;49.248;6.968;2023-06-22T01:06:05;21.60;99.90
27978;DHT22;15314;49.248;6.968;2023-06-22T01:07:31;21.50;99.90
27978;DHT22;15314;49.248;6.968;2023-06-22T01:10:34;21.40;99.90
27978;DHT22;15314;49.248;6.968;2023-06-22T01:11:45;21.30;99.90
27978;DHT22;15314;49.248;6.968;2023-06-22T01:12:53;21.40;99.90
27978;DHT22;15314;49.248;6.968;2023-06-22T01:14:11;21.40;99.90
27978;DHT22;15314;49.248;6.968;2023-06-22T01:15:31;21.40;99.90
27978;DHT22;15314;49.248;6.968;2023-06-22T01:16:36;21.50;99.90
27978;DHT22;15314;49.248;6.968;2023-06-22T01:17:40;21.50;99.90
27978;DHT22;15314;49.248;6.968;2023-06-22T01:18:43;21.40;99.90
27978;DHT22;15314;49.248;6.968;2023-06-22T01:19:54;21.40;99.90
27978;DHT22;15314;49.248;6.968;2023-06-22T01:20:57;21.40;99.90
27978;DHT22;15314;49.248;6.968;2023-06-22T01:21:58;21.40;99.90
27978;DHT22;15314;49.248;6.968;2023-06-22T01:23:31;21.40;99.90
27978;DHT22;15314;49.248;6.968;2023-06-22T01:24:41;21.40;99.90
27978;DHT22;15314;49.248;6.968;2023-06-22T01:25:48;21.50;99.90
27978;DHT22;15314;49.248;6.968;2023-06-22T01:26:57;21.50;99.90
27978;DHT22;15314;49.248;6.968;2023-06-22T01:29:19;21.40;99.90
27978;DHT22;15314;49.248;6.968;2023-06-22T01:30:22;21.40;99.90
27978;DHT22;15314;49.248;6.968;2023-06-22T01:31:26;21.30;99.90
27978;DHT22;15314;49.248;6.968;2023-06-22T01:32:33;21.30;99.90
27978;DHT22;15314;49.248;6.968;2023-06-22T01:33:37;21.20;99.90
27978;DHT22;15314;49.248;6.968;2023-06-22T01:34:40;21.20;99.90
27978;DHT22;15314;49.248;6.968;2023-06-22T01:35:41;21.30;99.90
27978;DHT22;15314;49.248;6.968;2023-06-22T01:36:43;21.20;99.90
27978;DHT22;15314;49.248;6.968;2023-06-22T01:37:44;21.20;99.90
27978;DHT22;15314;49.248;6.968;2023-06-22T01:38:47;21.10;99.90
27978;DHT22;15314;49.248;6.968;2023-06-22T01:39:48;21.20;99.90
27978;DHT22;15314;49.248;6.968;2023-06-22T01:40:49;21.20;99.90
27978;DHT22;15314;49.248;6.968;2023-06-22T01:41:50;21.10;99.90
27978;DHT22;15314;49.248;6.968;2023-06-22T01:42:51;21.10;99.90
27978;DHT22;15314;49.248;6.968;2023-06-22T01:43:53;21.00;99.90
27978;DHT22;15314;49.248;6.968;2023-06-22T01:44:55;21.00;99.90
27978;DHT22;15314;49.248;6.968;2023-06-22T01:45:58;21.10;99.90
27978;DHT22;15314;49.248;6.968;2023-06-22T01:46:59;21.00;99.90
27978;DHT22;15314;49.248;6.968;2023-06-22T01:48:00;21.10;99.90
27978;DHT22;15314;49.248;6.968;2023-06-22T01:49:02;21.10;99.90
27978;DHT22;15314;49.248;6.968;2023-06-22T01:50:03;21.00;99.90
27978;DHT22;15314;49.248;6.968;2023-06-22T01:51:04;21.00;99.90
27978;DHT22;15314;49.248;6.968;2023-06-22T01:52:06;21.00;99.90
27978;DHT22;15314;49.248;6.968;2023-06-22T01:53:07;21.00;99.90
27978;DHT22;15314;49.248;6.968;2023-06-22T01:54:07;20.90;99.90
27978;DHT22;15314;49.248;6.968;2023-06-22T01:55:08;20.90;99.90
27978;DHT22;15314;49.248;6.968;2023-06-22T01:56:09;20.90;99.90
27978;DHT22;15314;49.248;6.968;2023-06-22T01:57:10;20.80;99.90
27978;DHT22;15314;49.248;6.968;2023-06-22T01:58:11;20.70;99.90
27978;DHT22;15314;49.248;6.968;2023-06-22T01:59:17;20.70;99.90
27978;DHT22;15314;49.248;6.968;2023-06-22T02:00:22;20.70;99.90
27978;DHT22;15314;49.248;6.968;2023-06-22T02:01:28;20.70;99.90
27978;DHT22;15314;49.248;6.968;2023-06-22T02:02:39;20.60;99.90
27978;DHT22;15314;49.248;6.968;2023-06-22T02:04:03;20.50;99.90
27978;DHT22;15314;49.248;6.968;2023-06-22T02:05:07;20.50;99.90
27978;DHT22;15314;49.248;6.968;2023-06-22T02:06:17;20.50;99.90
27978;DHT22;15314;49.248;6.968;2023-06-22T02:07:20;20.50;99.90
27978;DHT22;15314;49.248;6.968;2023-06-22T02:08:29;20.50;99.90
27978;DHT22;15314;49.248;6.968;2023-06-22T02:09:31;20.60;99.90
27978;DHT22;15314;49.248;6.968;2023-06-22T02:10:34;20.50;99.90
27978;DHT22;15314;49.248;6.968;2023-06-22T02:11:37;20.50;99.90
27978;DHT22;15314;49.248;6.968;2023-06-22T02:12:39;20.50;99.90
27978;DHT22;15314;49.248;6.968;2023-06-22T02:13:41;20.50;99.90
27978;DHT22;15314;49.248;6.968;2023-06-22T02:14:44;20.50;99.90
27978;DHT22;15314;49.248;6.968;2023-06-22T02:15:47;20.50;99.90
27978;DHT22;15314;49.248;6.968;2023-06-22T02:16:48;20.50;99.90
27978;DHT22;15314;49.248;6.968;2023-06-22T02:17:49;20.50;99.90
27978;DHT22;15314;49.248;6.968;2023-06-22T02:18:51;20.50;99.90
27978;DHT22;15314;49.248;6.968;2023-06-22T02:19:51;20.50;99.90
27978;DHT22;15314;49.248;6.968;2023-06-22T02:20:52;20.50;99.90
27978;DHT22;15314;49.248;6.968;2023-06-22T02:21:53;20.50;99.90
27978;DHT22;15314;49.248;6.968;2023-06-22T02:22:54;20.50;99.90
27978;DHT22;15314;49.248;6.968;2023-06-22T02:23:54;20.50;99.90
27978;DHT22;15314;49.248;6.968;2023-06-22T02:24:56;20.50;99.90
27978;DHT22;15314;49.248;6.968;2023-06-22T02:25:56;20.50;99.90
27978;DHT22;15314;49.248;6.968;2023-06-22T02:27:01;20.40;99.90
27978;DHT22;15314;49.248;6.968;2023-06-22T02:28:03;20.50;99.90
27978;DHT22;15314;49.248;6.968;2023-06-22T02:29:04;20.50;99.90
27978;DHT22;15314;49.248;6.968;2023-06-22T02:30:05;20.40;99.90
27978;DHT22;15314;49.248;6.968;2023-06-22T02:31:06;20.40;99.90
27978;DHT22;15314;49.248;6.968;2023-06-22T02:32:07;20.50;99.90
27978;DHT22;15314;49.248;6.968;2023-06-22T02:33:07;20.50;99.90
27978;DHT22;15314;49.248;6.968;2023-06-22T02:34:08;20.40;99.90
27978;DHT22;15314;49.248;6.968;2023-06-22T02:35:11;20.40;99.90
27978;DHT22;15314;49.248;6.968;2023-06-22T02:36:12;20.40;99.90
27978;DHT22;15314;49.248;6.968;2023-06-22T02:37:16;20.40;99.90
27978;DHT22;15314;49.248;6.968;2023-06-22T02:38:17;20.40;99.90
27978;DHT22;15314;49.248;6.968;2023-06-22T02:39:21;20.40;99.90
27978;DHT22;15314;49.248;6.968;2023-06-22T02:40:22;20.40;99.90
27978;DHT22;15314;49.248;6.968;2023-06-22T02:41:23;20.50;99.90
27978;DHT22;15314;49.248;6.968;2023-06-22T02:42:24;20.50;99.90
27978;DHT22;15314;49.248;6.968;2023-06-22T02:43:25;20.50;99.90
27978;DHT22;15314;49.248;6.968;2023-06-22T02:44:25;20.40;99.90
27978;DHT22;15314;49.248;6.968;2023-06-22T02:45:26;20.40;99.90
27978;DHT22;15314;49.248;6.968;2023-06-22T02:46:26;20.40;99.90
27978;DHT22;15314;49.248;6.968;2023-06-22T02:47:27;20.40;99.90
27978;DHT22;15314;49.248;6.968;2023-06-22T02:48:28;20.40;99.90
27978;DHT22;15314;49.248;6.968;2023-06-22T02:49:28;20.40;99.90
27978;DHT22;15314;49.248;6.968;2023-06-22T02:50:29;20.30;99.90
27978;DHT22;15314;49.248;6.968;2023-06-22T02:51:33;20.30;99.90
27978;DHT22;15314;49.248;6.968;2023-06-22T02:52:37;20.30;99.90
27978;DHT22;15314;49.248;6.968;2023-06-22T02:53:38;20.30;99.90
27978;DHT22;15314;49.248;6.968;2023-06-22T02:54:39;20.30;99.90
27978;DHT22;15314;49.248;6.968;2023-06-22T02:55:39;20.20;99.90
27978;DHT22;15314;49.248;6.968;2023-06-22T02:56:40;20.20;99.90
27978;DHT22;15314;49.248;6.968;2023-06-22T02:57:41;20.20;99.90
27978;DHT22;15314;49.248;6.968;2023-06-22T02:58:44;20.10;99.90
27978;DHT22;15314;49.248;6.968;2023-06-22T02:59:44;20.10;99.90
27978;DHT22;15314;49.248;6.968;2023-06-22T03:00:45;20.10;99.90
27978;DHT22;15314;49.248;6.968;2023-06-22T03:01:45;20.10;99.90
27978;DHT22;15314;49.248;6.968;2023-06-22T03:02:47;20.10;99.90
27978;DHT22;15314;49.248;6.968;2023-06-22T03:03:48;20.10;99.90
27978;DHT22;15314;49.248;6.968;2023-06-22T03:04:49;20.10;99.90
27978;DHT22;15314;49.248;6.968;2023-06-22T03:05:49;20.10;99.90
27978;DHT22;15314;49.248;6.968;2023-06-22T03:06:53;20.10;99.90
27978;DHT22;15314;49.248;6.968;2023-06-22T03:07:53;20.20;99.90
27978;DHT22;15314;49.248;6.968;2023-06-22T03:08:59;20.20;99.90
27978;DHT22;15314;49.248;6.968;2023-06-22T03:10:00;20.30;99.90
27978;DHT22;15314;49.248;6.968;2023-06-22T03:11:01;20.20;99.90
27978;DHT22;15314;49.248;6.968;2023-06-22T03:12:02;20.20;99.90
27978;DHT22;15314;49.248;6.968;2023-06-22T03:13:02;20.20;99.90
27978;DHT22;15314;49.248;6.968;2023-06-22T03:14:03;20.20;99.90
27978;DHT22;15314;49.248;6.968;2023-06-22T03:15:06;20.30;99.90
27978;DHT22;15314;49.248;6.968;2023-06-22T03:16:07;20.20;99.90
27978;DHT22;15314;49.248;6.968;2023-06-22T03:17:07;20.20;99.90
27978;DHT22;15314;49.248;6.968;2023-06-22T03:18:08;20.20;99.90
27978;DHT22;15314;49.248;6.968;2023-06-22T03:19:08;20.20;99.90
27978;DHT22;15314;49.248;6.968;2023-06-22T03:20:10;20.20;99.90
27978;DHT22;15314;49.248;6.968;2023-06-22T03:21:12;20.20;99.90
27978;DHT22;15314;49.248;6.968;2023-06-22T03:22:12;20.10;99.90
27978;DHT22;15314;49.248;6.968;2023-06-22T03:23:15;20.10;99.90
27978;DHT22;15314;49.248;6.968;2023-06-22T03:24:16;20.10;99.90
27978;DHT22;15314;49.248;6.968;2023-06-22T03:25:16;20.10;99.90
27978;DHT22;15314;49.248;6.968;2023-06-22T03:26:18;20.00;99.90
27978;DHT22;15314;49.248;6.968;2023-06-22T03:27:18;20.00;99.90
27978;DHT22;15314;49.248;6.968;2023-06-22T03:28:19;19.90;99.90
27978;DHT22;15314;49.248;6.968;2023-06-22T03:29:20;19.90;99.90
27978;DHT22;15314;49.248;6.968;2023-06-22T03:30:20;19.90;99.90
27978;DHT22;15314;49.248;6.968;2023-06-22T03:31:21;19.90;99.90
27978;DHT22;15314;49.248;6.968;2023-06-22T03:32:22;19.90;99.90
27978;DHT22;15314;49.248;6.968;2023-06-22T03:33:23;19.80;99.90
27978;DHT22;15314;49.248;6.968;2023-06-22T03:34:23;19.80;99.90
27978;DHT22;15314;49.248;6.968;2023-06-22T03:35:24;19.80;99.90
27978;DHT22;15314;49.248;6.968;2023-06-22T03:36:24;19.90;99.90
27978;DHT22;15314;49.248;6.968;2023-06-22T03:37:26;19.90;99.90
27978;DHT22;15314;49.248;6.968;2023-06-22T03:38:27;19.90;99.90
27978;DHT22;15314;49.248;6.968;2023-06-22T03:39:27;19.90;99.90
27978;DHT22;15314;49.248;6.968;2023-06-22T03:40:28;19.80;99.90
27978;DHT22;15314;49.248;6.968;2023-06-22T03:41:29;19.90;99.90
27978;DHT22;15314;49.248;6.968;2023-06-22T03:42:30;19.80;99.90
27978;DHT22;15314;49.248;6.968;2023-06-22T03:43:31;19.70;99.90
27978;DHT22;15314;49.248;6.968;2023-06-22T03:44:31;19.80;99.90
27978;DHT22;15314;49.248;6.968;2023-06-22T03:45:32;19.80;99.90
27978;DHT22;15314;49.248;6.968;2023-06-22T03:46:32;19.80;99.90
27978;DHT22;15314;49.248;6.968;2023-06-22T03:47:33;19.80;99.90
27978;DHT22;15314;49.248;6.968;2023-06-22T03:48:34;19.90;99.90
27978;DHT22;15314;49.248;6.968;2023-06-22T03:49:35;19.90;99.90
27978;DHT22;15314;49.248;6.968;2023-06-22T03:50:35;19.90;99.90
27978;DHT22;15314;49.248;6.968;2023-06-22T03:51:36;19.90;99.90
27978;DHT22;15314;49.248;6.968;2023-06-22T03:52:36;19.90;99.90
27978;DHT22;15314;49.248;6.968;2023-06-22T03:53:37;19.90;99.90
27978;DHT22;15314;49.248;6.968;2023-06-22T03:54:38;19.90;99.90
27978;DHT22;15314;49.248;6.968;2023-06-22T03:55:47;19.80;99.90
27978;DHT22;15314;49.248;6.968;2023-06-22T03:56:49;19.80;99.90
27978;DHT22;15314;49.248;6.968;2023-06-22T03:57:49;19.90;99.90
27978;DHT22;15314;49.248;6.968;2023-06-22T03:58:50;19.80;99.90
27978;DHT22;15314;49.248;6.968;2023-06-22T03:59:51;19.90;99.90
27978;DHT22;15314;49.248;6.968;2023-06-22T04:00:53;19.90;99.90
27978;DHT22;15314;49.248;6.968;2023-06-22T04:01:54;19.90;99.90
27978;DHT22;15314;49.248;6.968;2023-06-22T04:02:54;19.90;99.90
27978;DHT22;15314;49.248;6.968;2023-06-22T04:03:55;19.80;99.90
27978;DHT22;15314;49.248;6.968;2023-06-22T04:04:56;19.80;99.90
27978;DHT22;15314;49.248;6.968;2023-06-22T04:05:56;19.80;99.90
27978;DHT22;15314;49.248;6.968;2023-06-22T04:06:57;19.80;99.90
27978;DHT22;15314;49.248;6.968;2023-06-22T04:07:57;19.80;99.90
27978;DHT22;15314;49.248;6.968;2023-06-22T04:08:58;19.80;99.90
27978;DHT22;15314;49.248;6.968;2023-06-22T04:09:59;19.80;99.90
27978;DHT22;15314;49.248;6.968;2023-06-22T04:10:59;19.90;99.90
27978;DHT22;15314;49.248;6.968;2023-06-22T04:12:01;19.90;99.90
27978;DHT22;15314;49.248;6.968;2023-06-22T04:13:02;19.90;99.90
27978;DHT22;15314;49.248;6.968;2023-06-22T04:14:02;20.00;99.90
27978;DHT22;15314;49.248;6.968;2023-06-22T04:15:03;20.00;99.90
27978;DHT22;15314;49.248;6.968;2023-06-22T04:16:04;20.00;99.90
27978;DHT22;15314;49.248;6.968;2023-06-22T04:17:05;20.00;99.90
27978;DHT22;15314;49.248;6.968;2023-06-22T04:18:05;20.10;99.90
27978;DHT22;15314;49.248;6.968;2023-06-22T04:19:06;20.10;99.90
27978;DHT22;15314;49.248;6.968;2023-06-22T04:20:07;20.20;99.90
27978;DHT22;15314;49.248;6.968;2023-06-22T04:21:08;20.20;99.90
27978;DHT22;15314;49.248;6.968;2023-06-22T04:22:09;20.10;99.90
27978;DHT22;15314;49.248;6.968;2023-06-22T04:23:10;20.20;99.90
27978;DHT22;15314;49.248;6.968;2023-06-22T04:24:11;20.20;99.90
27978;DHT22;15314;49.248;6.968;2023-06-22T04:25:12;20.20;99.90
27978;DHT22;15314;49.248;6.968;2023-06-22T04:26:13;20.30;99.90
27978;DHT22;15314;49.248;6.968;2023-06-22T04:27:17;20.30;99.90
27978;DHT22;15314;49.248;6.968;2023-06-22T04:28:19;20.30;99.90
27978;DHT22;15314;49.248;6.968;2023-06-22T04:29:19;20.30;99.90
27978;DHT22;15314;49.248;6.968;2023-06-22T04:30:20;20.40;99.90
27978;DHT22;15314;49.248;6.968;2023-06-22T04:31:21;20.40;99.90
27978;DHT22;15314;49.248;6.968;2023-06-22T04:32:22;20.40;99.90
27978;DHT22;15314;49.248;6.968;2023-06-22T04:33:22;20.40;99.90
27978;DHT22;15314;49.248;6.968;2023-06-22T04:34:23;20.40;99.90
27978;DHT22;15314;49.248;6.968;2023-06-22T04:35:26;20.40;99.90
27978;DHT22;15314;49.248;6.968;2023-06-22T04:36:28;20.40;99.90
27978;DHT22;15314;49.248;6.968;2023-06-22T04:37:31;20.40;99.90
27978;DHT22;15314;49.248;6.968;2023-06-22T04:38:32;20.40;99.90
27978;DHT22;15314;49.248;6.968;2023-06-22T04:39:35;20.40;99.90
27978;DHT22;15314;49.248;6.968;2023-06-22T04:40:36;20.50;99.90
27978;DHT22;15314;49.248;6.968;2023-06-22T04:41:40;20.50;99.90
27978;DHT22;15314;49.248;6.968;2023-06-22T04:42:43;20.60;99.90
27978;DHT22;15314;49.248;6.968;2023-06-22T04:43:52;20.60;99.90
27978;DHT22;15314;49.248;6.968;2023-06-22T04:44:54;20.50;99.90
27978;DHT22;15314;49.248;6.968;2023-06-22T04:45:55;20.60;99.90
27978;DHT22;15314;49.248;6.968;2023-06-22T04:47:01;20.60;99.90
27978;DHT22;15314;49.248;6.968;2023-06-22T04:48:05;20.60;99.90
27978;DHT22;15314;49.248;6.968;2023-06-22T04:49:09;20.60;99.90
27978;DHT22;15314;49.248;6.968;2023-06-22T04:50:10;20.60;99.90
27978;DHT22;15314;49.248;6.968;2023-06-22T04:51:11;20.60;99.90
27978;DHT22;15314;49.248;6.968;2023-06-22T04:52:13;20.60;99.90
27978;DHT22;15314;49.248;6.968;2023-06-22T04:53:14;20.60;99.90
27978;DHT22;15314;49.248;6.968;2023-06-22T04:54:14;20.60;99.90
27978;DHT22;15314;49.248;6.968;2023-06-22T04:55:15;20.60;99.90
27978;DHT22;15314;49.248;6.968;2023-06-22T04:56:20;20.60;99.90
27978;DHT22;15314;49.248;6.968;2023-06-22T04:57:22;20.70;99.90
27978;DHT22;15314;49.248;6.968;2023-06-22T04:58:31;20.70;99.90
27978;DHT22;15314;49.248;6.968;2023-06-22T04:59:33;20.80;99.90
27978;DHT22;15314;49.248;6.968;2023-06-22T05:00:33;20.90;99.90
27978;DHT22;15314;49.248;6.968;2023-06-22T05:01:36;20.90;99.90
27978;DHT22;15314;49.248;6.968;2023-06-22T05:02:38;21.00;99.90
27978;DHT22;15314;49.248;6.968;2023-06-22T05:03:39;21.00;99.90
27978;DHT22;15314;49.248;6.968;2023-06-22T05:04:42;21.00;99.90
27978;DHT22;15314;49.248;6.968;2023-06-22T05:05:42;21.00;99.90
27978;DHT22;15314;49.248;6.968;2023-06-22T05:06:43;21.10;99.90
27978;DHT22;15314;49.248;6.968;2023-06-22T05:07:49;21.00;99.90
27978;DHT22;15314;49.248;6.968;2023-06-22T05:08:54;21.10;99.90
27978;DHT22;15314;49.248;6.968;2023-06-22T05:09:59;21.10;99.90
27978;DHT22;15314;49.248;6.968;2023-06-22T05:11:00;21.10;99.90
27978;DHT22;15314;49.248;6.968;2023-06-22T05:12:01;21.20;99.90
27978;DHT22;15314;49.248;6.968;2023-06-22T05:13:02;21.20;99.90
27978;DHT22;15314;49.248;6.968;2023-06-22T05:14:03;21.30;99.90
27978;DHT22;15314;49.248;6.968;2023-06-22T05:15:05;21.30;99.90
27978;DHT22;15314;49.248;6.968;2023-06-22T05:16:06;21.30;99.90
27978;DHT22;15314;49.248;6.968;2023-06-22T05:17:07;21.30;99.90
27978;DHT22;15314;49.248;6.968;2023-06-22T05:18:13;21.30;99.90
27978;DHT22;15314;49.248;6.968;2023-06-22T05:19:14;21.30;99.90
27978;DHT22;15314;49.248;6.968;2023-06-22T05:20:15;21.40;99.90
27978;DHT22;15314;49.248;6.968;2023-06-22T05:21:18;21.30;99.90
27978;DHT22;15314;49.248;6.968;2023-06-22T05:22:19;21.30;99.90
27978;DHT22;15314;49.248;6.968;2023-06-22T05:23:20;21.30;99.90
27978;DHT22;15314;49.248;6.968;2023-06-22T05:24:20;21.30;99.90
27978;DHT22;15314;49.248;6.968;2023-06-22T05:25:21;21.40;99.90
27978;DHT22;15314;49.248;6.968;2023-06-22T05:26:22;21.40;99.90
27978;DHT22;15314;49.248;6.968;2023-06-22T05:27:23;21.30;99.90
27978;DHT22;15314;49.248;6.968;2023-06-22T05:28:23;21.30;99.90
27978;DHT22;15314;49.248;6.968;2023-06-22T05:29:24;21.30;99.90
27978;DHT22;15314;49.248;6.968;2023-06-22T05:30:27;21.40;99.90
27978;DHT22;15314;49.248;6.968;2023-06-22T05:31:28;21.40;99.90
27978;DHT22;15314;49.248;6.968;2023-06-22T05:32:29;21.40;99.90
27978;DHT22;15314;49.248;6.968;2023-06-22T05:33:29;21.50;99.90
27978;DHT22;15314;49.248;6.968;2023-06-22T05:34:30;21.40;99.90
27978;DHT22;15314;49.248;6.968;2023-06-22T05:35:31;21.50;99.90
27978;DHT22;15314;49.248;6.968;2023-06-22T05:36:31;21.60;99.90
27978;DHT22;15314;49.248;6.968;2023-06-22T05:37:32;21.70;99.90
27978;DHT22;15314;49.248;6.968;2023-06-22T05:38:33;21.80;99.90
27978;DHT22;15314;49.248;6.968;2023-06-22T05:39:33;21.80;99.90
27978;DHT22;15314;49.248;6.968;2023-06-22T05:40:34;21.80;99.90
27978;DHT22;15314;49.248;6.968;2023-06-22T05:41:34;21.80;99.90
27978;DHT22;15314;49.248;6.968;2023-06-22T05:42:35;21.90;99.90
27978;DHT22;15314;49.248;6.968;2023-06-22T05:43:36;22.00;99.90
27978;DHT22;15314;49.248;6.968;2023-06-22T05:44:36;22.00;99.90
27978;DHT22;15314;49.248;6.968;2023-06-22T05:45:38;22.00;99.90
27978;DHT22;15314;49.248;6.968;2023-06-22T05:46:43;22.00;99.90
27978;DHT22;15314;49.248;6.968;2023-06-22T05:47:48;22.10;99.90
27978;DHT22;15314;49.248;6.968;2023-06-22T05:48:49;22.10;99.90
27978;DHT22;15314;49.248;6.968;2023-06-22T05:49:49;22.20;99.90
27978;DHT22;15314;49.248;6.968;2023-06-22T05:50:50;22.10;99.90
27978;DHT22;15314;49.248;6.968;2023-06-22T05:51:51;22.20;99.90
27978;DHT22;15314;49.248;6.968;2023-06-22T05:52:51;22.20;99.90
27978;DHT22;15314;49.248;6.968;2023-06-22T05:53:52;22.30;99.90
27978;DHT22;15314;49.248;6.968;2023-06-22T05:54:53;22.20;99.90
27978;DHT22;15314;49.248;6.968;2023-06-22T05:55:53;22.30;99.90
27978;DHT22;15314;49.248;6.968;2023-06-22T05:56:54;22.30;99.90
27978;DHT22;15314;49.248;6.968;2023-06-22T05:57:55;22.40;99.90
27978;DHT22;15314;49.248;6.968;2023-06-22T05:58:56;22.30;99.90
27978;DHT22;15314;49.248;6.968;2023-06-22T05:59:56;22.30;99.90
27978;DHT22;15314;49.248;6.968;2023-06-22T06:00:57;22.30;99.90
27978;DHT22;15314;49.248;6.968;2023-06-22T06:01:58;22.40;99.90
27978;DHT22;15314;49.248;6.968;2023-06-22T06:02:59;22.50;99.90
27978;DHT22;15314;49.248;6.968;2023-06-22T06:04:04;22.50;99.90
27978;DHT22;15314;49.248;6.968;2023-06-22T06:05:05;22.50;99.90
27978;DHT22;15314;49.248;6.968;2023-06-22T06:06:06;22.50;99.90
27978;DHT22;15314;49.248;6.968;2023-06-22T06:07:06;22.50;99.90
27978;DHT22;15314;49.248;6.968;2023-06-22T06:08:07;22.60;99.90
27978;DHT22;15314;49.248;6.968;2023-06-22T06:09:08;22.60;99.90
27978;DHT22;15314;49.248;6.968;2023-06-22T06:10:09;22.70;99.90
27978;DHT22;15314;49.248;6.968;2023-06-22T06:11:10;22.80;99.90
27978;DHT22;15314;49.248;6.968;2023-06-22T06:12:11;22.80;99.90
27978;DHT22;15314;49.248;6.968;2023-06-22T06:13:11;22.80;99.90
27978;DHT22;15314;49.248;6.968;2023-06-22T06:14:12;22.90;99.90
27978;DHT22;15314;49.248;6.968;2023-06-22T06:15:13;22.90;99.90
27978;DHT22;15314;49.248;6.968;2023-06-22T06:16:13;23.00;99.90
27978;DHT22;15314;49.248;6.968;2023-06-22T06:17:14;23.00;99.90
27978;DHT22;15314;49.248;6.968;2023-06-22T06:18:14;23.00;99.90
27978;DHT22;15314;49.248;6.968;2023-06-22T06:19:15;23.00;99.90
27978;DHT22;15314;49.248;6.968;2023-06-22T06:20:19;23.10;99.90
27978;DHT22;15314;49.248;6.968;2023-06-22T06:21:19;23.20;99.90
27978;DHT22;15314;49.248;6.968;2023-06-22T06:22:20;23.40;99.90
27978;DHT22;15314;49.248;6.968;2023-06-22T06:23:21;23.30;99.90
27978;DHT22;15314;49.248;6.968;2023-06-22T06:24:22;23.50;99.90
27978;DHT22;15314;49.248;6.968;2023-06-22T06:25:23;23.60;99.90
27978;DHT22;15314;49.248;6.968;2023-06-22T06:26:23;23.60;99.90
27978;DHT22;15314;49.248;6.968;2023-06-22T06:27:29;23.60;99.90
27978;DHT22;15314;49.248;6.968;2023-06-22T06:28:30;23.60;99.90
27978;DHT22;15314;49.248;6.968;2023-06-22T06:29:32;23.60;99.90
27978;DHT22;15314;49.248;6.968;2023-06-22T06:30:32;23.50;99.90
27978;DHT22;15314;49.248;6.968;2023-06-22T06:31:33;23.40;99.90
27978;DHT22;15314;49.248;6.968;2023-06-22T06:32:34;23.50;99.90
27978;DHT22;15314;49.248;6.968;2023-06-22T06:33:35;23.30;99.90
27978;DHT22;15314;49.248;6.968;2023-06-22T06:34:36;23.50;99.90